createdAt,value
2019-04-30T00:01:39.208Z,67.13
2019-04-30T00:04:16.543Z,58.67
2019-04-30T00:06:45.407Z,64.97
2019-04-30T00:09:18.969Z,61.20
2019-04-30T00:11:46.078Z,65.30
2019-04-30T00:14:15.334Z,59.83
2019-04-30T00:16:45.051Z,58.97
2019-04-30T00:19:15.768Z,59.33
2019-04-30T00:21:42.622Z,57.17
2019-04-30T00:24:10.466Z,57.97
2019-04-30T00:26:39.874Z,58.30
2019-04-30T00:29:08.473Z,63.83
2019-04-30T00:31:36.210Z,64.73
2019-04-30T00:34:05.017Z,65.07
2019-04-30T00:36:34.126Z,65.40
2019-04-30T00:39:07.150Z,67.07
2019-04-30T00:41:35.240Z,62.90
2019-04-30T00:44:05.291Z,67.70
2019-04-30T00:46:36.255Z,60.20
2019-04-30T00:49:11.217Z,63.87
2019-04-30T00:51:35.333Z,61.53
2019-04-30T00:54:03.164Z,61.50
2019-04-30T00:56:30.976Z,57.57
2019-04-30T00:59:02.435Z,60.40
2019-04-30T01:01:50.946Z,58.60
2019-04-30T01:04:38.276Z,58.27
2019-04-30T01:07:08.761Z,54.47
2019-04-30T01:09:39.606Z,60.03
2019-04-30T01:12:06.396Z,51.40
2019-04-30T01:14:34.313Z,55.87
2019-04-30T01:17:03.746Z,55.27
2019-04-30T01:19:35.081Z,53.50
2019-04-30T01:22:03.841Z,53.83
2019-04-30T01:24:32.701Z,53.23
2019-04-30T01:27:06.921Z,50.03
2019-04-30T01:29:38.055Z,48.27
2019-04-30T01:32:02.705Z,49.63
2019-04-30T01:34:30.531Z,47.10
2019-04-30T01:36:58.972Z,46.00
2019-04-30T01:39:30.039Z,44.97
2019-04-30T01:41:58.587Z,45.70
2019-04-30T01:44:26.471Z,46.60
2019-04-30T01:46:54.867Z,44.53
2019-04-30T01:49:25.763Z,44.17
2019-04-30T01:51:52.868Z,44.00
2019-04-30T01:54:24.308Z,43.63
2019-04-30T01:57:06.188Z,44.80
2019-04-30T01:59:56.124Z,42.57
2019-04-30T02:02:25.788Z,44.70
2019-04-30T02:04:53.552Z,38.90
2019-04-30T02:07:21.268Z,42.17
2019-04-30T02:09:49.959Z,46.60
2019-04-30T02:12:19.728Z,45.00
2019-04-30T02:14:49.464Z,40.00
2019-04-30T02:17:19.150Z,35.07
2019-04-30T02:19:54.726Z,35.37
2019-04-30T02:22:18.827Z,32.00
2019-04-30T02:24:48.607Z,31.80
2019-04-30T02:27:16.536Z,35.73
2019-04-30T02:29:44.318Z,36.33
2019-04-30T02:32:12.660Z,30.60
2019-04-30T02:34:46.405Z,34.50
2019-04-30T02:37:21.154Z,36.70
2019-04-30T02:39:50.287Z,29.30
2019-04-30T02:42:20.100Z,31.77
2019-04-30T02:44:51.026Z,29.27
2019-04-30T02:47:21.461Z,32.30
2019-04-30T02:49:53.344Z,29.50
2019-04-30T02:52:25.003Z,29.17
2019-04-30T02:54:55.091Z,27.80
2019-04-30T02:57:23.559Z,31.10
2019-04-30T03:00:10.194Z,29.00
2019-04-30T03:02:39.474Z,26.37
2019-04-30T03:05:12.826Z,24.30
2019-04-30T03:07:40.504Z,27.73
2019-04-30T03:10:10.085Z,24.13
2019-04-30T03:12:40.433Z,27.63
2019-04-30T03:15:09.952Z,27.13
2019-04-30T03:17:50.888Z,25.60
2019-04-30T03:20:44.153Z,20.63
2019-04-30T03:23:11.864Z,20.40
2019-04-30T03:25:40.527Z,22.53
2019-04-30T03:28:09.774Z,23.67
2019-04-30T03:30:41.662Z,20.30
2019-04-30T03:33:12.209Z,19.67
2019-04-30T03:35:46.620Z,24.00
2019-04-30T03:38:09.460Z,20.10
2019-04-30T03:40:40.204Z,24.07
2019-04-30T03:43:06.753Z,22.03
2019-04-30T03:45:34.644Z,25.13
2019-04-30T03:48:03.255Z,20.47
2019-04-30T03:50:48.220Z,22.90
2019-04-30T03:53:00.774Z,21.57
2019-04-30T03:55:29.882Z,19.73
2019-04-30T03:58:00.171Z,18.27
2019-04-30T04:00:46.744Z,24.20
2019-04-30T04:03:14.709Z,21.10
2019-04-30T04:06:09.409Z,20.60
2019-04-30T04:08:45.014Z,17.90
2019-04-30T04:11:23.413Z,22.47
2019-04-30T04:13:51.133Z,21.47
2019-04-30T04:16:19.459Z,18.97
2019-04-30T04:18:49.795Z,15.00
2019-04-30T04:21:20.165Z,14.90
2019-04-30T04:23:49.164Z,19.63
2019-04-30T04:26:16.405Z,16.67
2019-04-30T04:28:44.299Z,17.30
2019-04-30T04:31:12.622Z,20.17
2019-04-30T04:33:40.389Z,14.77
2019-04-30T04:36:09.198Z,21.10
2019-04-30T04:38:40.061Z,18.27
2019-04-30T04:41:10.102Z,17.70
2019-04-30T04:43:36.572Z,19.47
2019-04-30T04:46:04.282Z,19.63
2019-04-30T04:48:32.065Z,21.50
2019-04-30T04:51:00.258Z,19.70
2019-04-30T04:53:30.423Z,14.87
2019-04-30T04:55:59.924Z,18.03
2019-04-30T04:58:29.664Z,17.93
2019-04-30T05:00:59.236Z,17.30
2019-04-30T05:03:31.901Z,17.57
2019-04-30T05:06:02.373Z,20.87
2019-04-30T05:08:29.356Z,17.27
2019-04-30T05:10:57.310Z,19.87
2019-04-30T05:13:25.255Z,17.80
2019-04-30T05:15:53.055Z,18.73
2019-04-30T05:18:22.740Z,22.20
2019-04-30T05:20:50.449Z,15.87
2019-04-30T05:23:19.516Z,15.00
2019-04-30T05:25:49.079Z,16.70
2019-04-30T05:28:18.878Z,18.43
2019-04-30T05:30:46.867Z,15.90
2019-04-30T05:33:14.684Z,19.67
2019-04-30T05:35:42.431Z,18.37
2019-04-30T05:38:10.416Z,22.17
2019-04-30T05:40:39.818Z,17.53
2019-04-30T05:43:08.733Z,18.77
2019-04-30T05:45:39.025Z,20.27
2019-04-30T05:48:08.739Z,16.63
2019-04-30T05:50:36.646Z,15.93
2019-04-30T05:53:04.610Z,13.10
2019-04-30T05:55:32.408Z,14.03
2019-04-30T05:58:01.529Z,18.80
2019-04-30T06:00:30.605Z,17.47
2019-04-30T06:02:59.492Z,17.67
2019-04-30T06:05:28.629Z,16.33
2019-04-30T06:07:56.676Z,20.17
2019-04-30T06:10:42.422Z,17.60
2019-04-30T06:13:26.570Z,15.03
2019-04-30T06:16:11.830Z,15.80
2019-04-30T06:18:42.149Z,14.87
2019-04-30T06:21:09.431Z,17.50
2019-04-30T06:23:39.211Z,16.97
2019-04-30T06:26:09.943Z,19.33
2019-04-30T06:28:36.933Z,15.27
2019-04-30T06:31:04.754Z,17.03
2019-04-30T06:33:48.738Z,20.87
2019-04-30T06:36:19.048Z,17.30
2019-04-30T06:38:48.936Z,14.53
2019-04-30T06:41:16.775Z,14.37
2019-04-30T06:43:44.852Z,15.70
2019-04-30T06:46:12.768Z,16.00
2019-04-30T06:48:41.878Z,14.33
2019-04-30T06:51:09.753Z,12.77
2019-04-30T06:53:39.155Z,13.77
2019-04-30T06:56:08.918Z,13.77
2019-04-30T06:58:36.794Z,14.57
2019-04-30T07:01:04.518Z,16.47
2019-04-30T07:03:32.290Z,12.87
2019-04-30T07:06:00.053Z,15.13
2019-04-30T07:08:55.667Z,13.83
2019-04-30T07:11:24.922Z,16.20
2019-04-30T07:13:52.807Z,20.10
2019-04-30T07:16:20.610Z,14.30
2019-04-30T07:18:48.982Z,17.17
2019-04-30T07:21:16.881Z,14.93
2019-04-30T07:23:44.620Z,15.83
2019-04-30T07:26:13.734Z,15.60
2019-04-30T07:31:14.709Z,15.10
2019-04-30T07:33:42.539Z,14.60
2019-04-30T07:36:10.310Z,17.00
2019-04-30T07:38:45.727Z,16.03
2019-04-30T07:41:09.567Z,19.20
2019-04-30T07:43:39.256Z,16.97
2019-04-30T07:46:09.382Z,14.50
2019-04-30T07:48:39.928Z,19.80
2019-04-30T07:51:10.300Z,14.60
2019-04-30T07:53:36.979Z,14.17
2019-04-30T07:56:23.604Z,18.60
2019-04-30T07:58:34.758Z,18.43
2019-04-30T08:01:02.515Z,14.57
2019-04-30T08:03:55.635Z,15.27
2019-04-30T08:06:23.977Z,14.50
2019-04-30T08:08:57.054Z,10.90
2019-04-30T08:09:38.450Z,19.63
2019-04-30T08:11:25.666Z,17.13
2019-04-30T08:13:52.111Z,13.37
2019-04-30T08:16:20.207Z,18.93
2019-04-30T08:18:49.226Z,18.27
2019-04-30T08:21:19.021Z,15.37
2019-04-30T08:23:48.819Z,17.33
2019-04-30T08:26:18.704Z,12.40
2019-04-30T08:28:48.599Z,17.13
2019-04-30T08:31:16.224Z,16.47
2019-04-30T08:33:44.118Z,14.67
2019-04-30T08:36:11.942Z,15.57
2019-04-30T08:38:39.719Z,18.03
2019-04-30T08:41:09.298Z,14.63
2019-04-30T08:43:39.506Z,13.37
2019-04-30T08:46:09.295Z,16.40
2019-04-30T08:48:49.867Z,21.17
2019-04-30T08:51:09.347Z,15.57
2019-04-30T08:53:38.494Z,13.50
2019-04-30T08:56:06.492Z,16.47
2019-04-30T08:58:34.316Z,14.73
2019-04-30T09:01:02.107Z,13.83
2019-04-30T09:03:29.816Z,12.53
2019-04-30T09:06:09.343Z,10.93
2019-04-30T09:08:40.093Z,13.37
2019-04-30T09:11:21.821Z,13.63
2019-04-30T09:13:38.945Z,13.40
2019-04-30T09:16:09.243Z,17.83
2019-04-30T09:18:39.269Z,13.90
2019-04-30T09:21:08.873Z,17.00
2019-04-30T09:23:45.914Z,17.80
2019-04-30T09:26:08.544Z,16.10
2019-04-30T09:28:37.033Z,16.77
2019-04-30T09:31:06.171Z,15.43
2019-04-30T09:33:33.936Z,13.87
2019-04-30T09:36:01.823Z,16.03
2019-04-30T09:38:29.677Z,14.53
2019-04-30T09:40:59.434Z,14.47
2019-04-30T09:43:28.607Z,14.20
2019-04-30T09:45:56.768Z,19.50
2019-04-30T09:48:24.654Z,14.17
2019-04-30T09:50:52.833Z,16.27
2019-04-30T09:53:21.126Z,15.83
2019-04-30T09:55:50.282Z,12.70
2019-04-30T09:58:20.943Z,13.57
2019-04-30T10:00:50.201Z,14.33
2019-04-30T10:03:20.123Z,13.47
2019-04-30T10:05:49.161Z,14.07
2019-04-30T10:08:18.875Z,16.63
2019-04-30T10:10:58.791Z,15.27
2019-04-30T10:13:26.777Z,14.80
2019-04-30T10:16:15.064Z,12.93
2019-04-30T10:18:42.827Z,16.47
2019-04-30T10:21:10.747Z,17.17
2019-04-30T10:23:39.210Z,15.13
2019-04-30T10:26:07.052Z,15.47
2019-04-30T10:28:38.624Z,16.67
2019-04-30T10:31:06.936Z,16.63
2019-04-30T10:33:34.915Z,14.63
2019-04-30T10:36:02.872Z,16.40
2019-04-30T10:38:30.789Z,44.83
2019-04-30T10:40:59.324Z,25.97
2019-04-30T10:43:29.053Z,15.27
2019-04-30T10:45:58.563Z,19.77
2019-04-30T10:48:26.731Z,19.03
2019-04-30T10:50:56.344Z,18.90
2019-04-30T10:53:24.095Z,21.17
2019-04-30T10:55:51.798Z,20.97
2019-04-30T10:58:19.661Z,21.53
2019-04-30T11:00:48.002Z,19.00
2019-04-30T11:03:20.756Z,20.40
2019-04-30T11:05:48.692Z,21.87
2019-04-30T11:08:16.565Z,15.63
2019-04-30T11:10:44.477Z,19.50
2019-04-30T11:13:12.336Z,16.00
2019-04-30T11:15:40.030Z,20.93
2019-04-30T11:18:07.897Z,21.80
2019-04-30T11:20:35.987Z,19.53
2019-04-30T11:23:13.853Z,22.93
2019-04-30T11:25:34.745Z,82.93
2019-04-30T11:28:03.745Z,65.53
2019-04-30T11:30:32.116Z,73.60
2019-04-30T11:33:00.435Z,22.20
2019-04-30T11:35:29.668Z,17.90
2019-04-30T11:37:57.738Z,17.33
2019-04-30T11:40:34.531Z,23.03
2019-04-30T11:42:59.232Z,19.77
2019-04-30T11:46:08.742Z,18.43
2019-04-30T11:48:36.579Z,27.10
2019-04-30T11:51:09.437Z,17.23
2019-04-30T11:53:39.000Z,19.47
2019-04-30T11:56:06.972Z,20.03
2019-04-30T11:58:34.737Z,20.03
2019-04-30T12:01:03.950Z,21.13
2019-04-30T12:03:31.672Z,21.43
2019-04-30T12:05:59.489Z,26.13
2019-04-30T12:08:31.342Z,21.53
2019-04-30T12:11:06.387Z,29.37
2019-04-30T12:13:34.207Z,19.10
2019-04-30T12:16:02.152Z,18.70
2019-04-30T12:18:29.978Z,18.87
2019-04-30T12:20:57.939Z,23.07
2019-04-30T12:23:26.797Z,20.13
2019-04-30T12:25:54.535Z,19.83
2019-04-30T12:28:22.240Z,20.70
2019-04-30T12:30:50.102Z,20.67
2019-04-30T12:33:19.151Z,22.03
2019-04-30T12:35:49.231Z,20.33
2019-04-30T12:38:18.986Z,20.70
2019-04-30T12:40:46.624Z,17.53
2019-04-30T12:43:14.364Z,18.27
2019-04-30T12:45:42.319Z,19.00
2019-04-30T12:48:20.343Z,18.33
2019-04-30T12:51:09.008Z,16.50
2019-04-30T12:53:56.156Z,19.43
2019-04-30T12:56:41.807Z,15.63
2019-04-30T12:59:09.661Z,14.37
2019-04-30T13:01:39.766Z,16.40
2019-04-30T13:04:07.101Z,14.30
2019-04-30T13:06:35.673Z,15.47
2019-04-30T13:09:07.287Z,12.73
2019-04-30T13:11:37.304Z,14.60
2019-04-30T13:14:06.650Z,13.27
2019-04-30T13:16:35.271Z,20.57
2019-04-30T13:19:03.066Z,12.27
2019-04-30T13:21:31.014Z,12.70
2019-04-30T13:23:58.882Z,12.73
2019-04-30T13:26:28.491Z,13.90
2019-04-30T13:29:03.835Z,14.70
2019-04-30T13:31:31.671Z,14.40
2019-04-30T13:34:24.831Z,15.07
2019-04-30T13:36:52.611Z,13.50
2019-04-30T13:39:27.106Z,14.87
2019-04-30T13:42:00.215Z,13.97
2019-04-30T13:44:31.219Z,13.63
2019-04-30T13:46:59.011Z,12.63
2019-04-30T13:49:30.058Z,10.83
2019-04-30T13:51:56.563Z,16.17
2019-04-30T13:54:25.144Z,15.03
2019-04-30T13:56:52.889Z,11.17
2019-04-30T13:59:20.733Z,14.30
2019-04-30T14:01:48.966Z,11.73
2019-04-30T14:04:42.000Z,21.83
2019-04-30T14:07:28.832Z,10.83
2019-04-30T14:09:56.728Z,14.60
2019-04-30T14:12:24.574Z,11.27
2019-04-30T14:14:52.370Z,12.93
2019-04-30T14:17:20.426Z,14.23
2019-04-30T14:19:48.225Z,14.07
2019-04-30T14:22:16.116Z,9.90
2019-04-30T14:24:44.110Z,14.13
2019-04-30T14:27:24.890Z,10.40
2019-04-30T14:29:52.679Z,11.03
2019-04-30T14:32:20.452Z,11.40
2019-04-30T14:34:50.386Z,12.20
2019-04-30T14:37:18.069Z,15.77
2019-04-30T14:39:46.486Z,12.53
2019-04-30T14:42:15.338Z,13.27
2019-04-30T14:44:44.246Z,12.23
2019-04-30T14:47:30.089Z,9.93
2019-04-30T14:50:16.196Z,11.33
2019-04-30T14:53:03.408Z,11.10
2019-04-30T14:56:08.876Z,11.40
2019-04-30T14:59:04.648Z,14.00
2019-04-30T15:01:41.392Z,12.37
2019-04-30T15:04:09.265Z,17.10
2019-04-30T15:06:37.138Z,12.57
2019-04-30T15:09:07.161Z,17.00
2019-04-30T15:11:35.173Z,14.77
2019-04-30T15:14:03.439Z,14.90
2019-04-30T15:16:31.865Z,10.17
2019-04-30T15:18:59.735Z,14.23
2019-04-30T15:21:28.527Z,11.10
2019-04-30T15:24:06.804Z,8.07
2019-04-30T15:26:34.512Z,13.03
2019-04-30T15:29:10.155Z,13.80
2019-04-30T15:31:34.631Z,10.70
2019-04-30T15:34:13.025Z,15.77
2019-04-30T15:36:41.019Z,11.77
2019-04-30T15:39:39.384Z,11.70
2019-04-30T15:42:08.909Z,10.13
2019-04-30T15:44:42.691Z,12.53
2019-04-30T15:47:08.955Z,12.53
2019-04-30T15:49:36.931Z,12.83
2019-04-30T15:52:04.888Z,9.73
2019-04-30T15:54:32.971Z,11.33
2019-04-30T15:57:00.874Z,9.03
2019-04-30T15:59:39.562Z,9.27
2019-04-30T16:02:11.985Z,16.87
2019-04-30T16:05:01.972Z,14.17
2019-04-30T16:07:29.775Z,9.80
2019-04-30T16:10:05.432Z,10.80
2019-04-30T16:12:58.929Z,7.93
2019-04-30T16:15:27.172Z,10.13
2019-04-30T16:17:56.679Z,13.13
2019-04-30T16:20:24.448Z,12.03
2019-04-30T16:22:52.290Z,12.17
2019-04-30T16:25:20.005Z,8.57
2019-04-30T16:27:47.851Z,11.07
2019-04-30T16:30:15.948Z,11.17
2019-04-30T16:32:43.685Z,13.27
2019-04-30T16:35:11.470Z,12.83
2019-04-30T16:37:39.221Z,11.70
2019-04-30T16:40:08.309Z,9.50
2019-04-30T16:42:38.978Z,15.83
2019-04-30T16:45:09.160Z,15.10
2019-04-30T16:47:36.984Z,8.93
2019-04-30T16:50:05.200Z,10.80
2019-04-30T16:52:32.958Z,8.23
2019-04-30T16:55:00.865Z,9.90
2019-04-30T16:57:30.363Z,11.70
2019-04-30T16:59:59.367Z,8.20
2019-04-30T17:02:29.543Z,11.17
2019-04-30T17:05:20.330Z,12.20
2019-04-30T17:07:56.166Z,44.33
2019-04-30T17:10:43.333Z,24.43
2019-04-30T17:13:25.260Z,14.03
2019-04-30T17:15:55.992Z,39.50
2019-04-30T17:18:23.751Z,70.23
2019-04-30T17:20:51.447Z,24.70
2019-04-30T17:23:19.462Z,15.77
2019-04-30T17:25:47.547Z,15.50
2019-04-30T17:28:18.666Z,186.10
2019-04-30T17:30:46.368Z,77.77
2019-04-30T17:33:14.100Z,28.50
2019-04-30T17:35:41.790Z,27.83
2019-04-30T17:38:09.631Z,27.33
2019-04-30T17:40:38.984Z,49.63
2019-04-30T17:43:06.968Z,97.60
2019-04-30T17:45:34.666Z,54.50
2019-04-30T17:48:02.629Z,138.97
2019-04-30T17:50:30.320Z,110.50
2019-04-30T17:53:00.516Z,62.30
2019-04-30T17:55:29.153Z,19.00
2019-04-30T17:57:58.551Z,11.03
2019-04-30T18:00:29.373Z,62.23
2019-04-30T18:02:57.843Z,37.23
2019-04-30T18:05:26.417Z,18.73
2019-04-30T18:07:56.064Z,12.47
2019-04-30T18:10:24.255Z,10.37
2019-04-30T18:12:52.791Z,11.80
2019-04-30T18:15:23.200Z,18.70
2019-04-30T18:17:58.067Z,22.20
2019-04-30T18:20:39.198Z,21.30
2019-04-30T18:23:25.070Z,24.83
2019-04-30T18:26:06.966Z,40.77
2019-04-30T18:28:34.862Z,33.23
2019-04-30T18:31:02.660Z,18.93
2019-04-30T18:33:30.508Z,18.40
2019-04-30T18:35:59.680Z,15.77
2019-04-30T18:38:29.266Z,20.03
2019-04-30T18:40:57.172Z,17.97
2019-04-30T18:43:24.923Z,17.30
2019-04-30T18:45:52.730Z,15.73
2019-04-30T18:48:20.586Z,14.73
2019-04-30T18:50:48.579Z,16.57
2019-04-30T18:53:21.203Z,17.07
2019-04-30T18:55:50.751Z,21.47
2019-04-30T18:58:20.026Z,15.10
2019-04-30T19:00:49.422Z,13.10
2019-04-30T19:03:21.164Z,13.63
2019-04-30T19:05:51.505Z,13.63
2019-04-30T19:08:39.465Z,13.13
2019-04-30T19:11:28.944Z,12.20
2019-04-30T19:14:05.777Z,13.30
2019-04-30T19:16:50.996Z,15.43
2019-04-30T19:19:25.567Z,15.37
2019-04-30T19:21:53.255Z,13.43
2019-04-30T19:24:21.061Z,14.57
2019-04-30T19:26:48.955Z,15.23
2019-04-30T19:29:16.815Z,13.47
2019-04-30T19:31:44.496Z,16.80
2019-04-30T19:34:12.354Z,15.67
2019-04-30T19:36:40.662Z,10.43
2019-04-30T19:39:12.870Z,11.50
2019-04-30T19:41:40.617Z,15.47
2019-04-30T19:44:09.027Z,11.70
2019-04-30T19:46:36.985Z,12.57
2019-04-30T19:49:04.815Z,11.23
2019-04-30T19:51:33.052Z,16.27
2019-04-30T19:54:01.443Z,13.37
2019-04-30T19:56:30.413Z,12.20
2019-04-30T19:59:02.846Z,12.50
2019-04-30T20:01:28.810Z,12.73
2019-04-30T20:03:58.677Z,14.37
2019-04-30T20:06:28.685Z,13.00
2019-04-30T20:08:56.583Z,11.83
2019-04-30T20:11:24.411Z,15.07
2019-04-30T20:13:52.500Z,12.43
2019-04-30T20:16:21.134Z,16.73
2019-04-30T20:18:49.117Z,16.03
2019-04-30T20:21:27.943Z,9.37
2019-04-30T20:23:48.884Z,18.07
2019-04-30T20:26:16.824Z,10.83
2019-04-30T20:28:44.640Z,8.83
2019-04-30T20:31:12.748Z,13.27
2019-04-30T20:33:40.450Z,11.37
2019-04-30T20:36:09.257Z,10.90
2019-04-30T20:38:45.966Z,11.87
2019-04-30T20:41:22.031Z,14.07
2019-04-30T20:43:49.896Z,10.87
2019-04-30T20:46:29.748Z,10.10
2019-04-30T20:48:49.166Z,10.23
2019-04-30T20:51:17.072Z,10.43
2019-04-30T20:53:45.746Z,11.37
2019-04-30T20:56:13.501Z,9.30
2019-04-30T20:58:54.575Z,10.17
2019-04-30T21:01:12.089Z,10.37
2019-04-30T21:03:40.236Z,9.37
2019-04-30T21:06:08.916Z,11.40
2019-04-30T21:08:36.755Z,9.17
2019-04-30T21:11:04.488Z,12.97
2019-04-30T21:13:32.177Z,9.13
2019-04-30T21:16:00.964Z,10.13
2019-04-30T21:18:32.020Z,12.00
2019-04-30T21:20:59.622Z,17.13
2019-04-30T21:23:29.248Z,13.67
2019-04-30T21:25:58.975Z,12.57
2019-04-30T21:28:26.931Z,13.70
2019-04-30T21:30:54.735Z,11.90
2019-04-30T21:33:32.259Z,13.80
2019-04-30T21:36:08.833Z,11.80
2019-04-30T21:38:36.665Z,13.00
2019-04-30T21:41:04.471Z,17.13
2019-04-30T21:43:32.152Z,17.73
2019-04-30T21:45:59.933Z,13.97
2019-04-30T21:48:28.789Z,10.83
2019-04-30T21:50:56.688Z,10.27
2019-04-30T21:53:24.474Z,9.10
2019-04-30T21:55:52.212Z,7.93
2019-04-30T21:58:20.426Z,6.93
2019-04-30T22:01:24.605Z,9.73
2019-04-30T22:03:52.537Z,8.20
2019-04-30T22:06:20.539Z,7.93
2019-04-30T22:08:48.630Z,8.73
2019-04-30T22:11:16.425Z,8.77
2019-04-30T22:13:44.464Z,10.67
2019-04-30T22:16:12.171Z,7.77
2019-04-30T22:18:39.915Z,12.27
2019-04-30T22:21:07.814Z,12.33
2019-04-30T22:23:36.319Z,9.13
2019-04-30T22:26:04.376Z,8.03
2019-04-30T22:28:32.217Z,7.83
2019-04-30T22:31:00.055Z,8.23
2019-04-30T22:33:29.245Z,12.80
2019-04-30T22:36:02.856Z,13.77
2019-04-30T22:38:34.790Z,7.87
2019-04-30T22:41:02.652Z,10.80
2019-04-30T22:43:30.561Z,11.90
2019-04-30T22:46:03.484Z,8.93
2019-04-30T22:48:31.227Z,14.33
2019-04-30T22:50:59.024Z,12.23
2019-04-30T22:53:26.795Z,11.10
2019-04-30T22:55:54.502Z,9.27
2019-04-30T22:58:22.371Z,10.93
2019-04-30T23:00:52.172Z,11.40
2019-04-30T23:03:26.378Z,8.03
2019-04-30T23:05:54.084Z,11.30
2019-04-30T23:08:21.856Z,12.33
2019-04-30T23:10:49.988Z,8.87
2019-04-30T23:13:18.262Z,9.33
2019-04-30T23:15:49.514Z,9.67
2019-04-30T23:18:17.585Z,8.43
2019-04-30T23:20:45.306Z,9.37
2019-04-30T23:23:14.667Z,9.03
2019-04-30T23:25:42.540Z,10.80
2019-04-30T23:28:10.284Z,8.77
2019-04-30T23:30:38.796Z,8.83
2019-04-30T23:33:06.593Z,8.53
2019-04-30T23:35:34.442Z,8.87
2019-04-30T23:38:02.354Z,7.83
2019-04-30T23:40:46.090Z,8.60
2019-04-30T23:43:13.863Z,8.63
2019-04-30T23:45:41.732Z,10.27
2019-04-30T23:48:09.638Z,12.20
2019-04-30T23:50:37.374Z,7.03
2019-04-30T23:53:05.088Z,6.83
2019-04-30T23:55:32.970Z,10.47
2019-04-30T23:58:00.780Z,10.27
